sensor_id;sensor_type;location;lat;lon;timestamp;temperature;humidity
64599;SHT31;51008;51.504;11.548;2024-01-10T00:04:59;-9.76;93.23
64599;SHT31;51008;51.504;11.548;2024-01-10T00:10:00;-9.72;93.26
64599;SHT31;51008;51.504;11.548;2024-01-10T00:15:05;-9.60;93.36
64599;SHT31;51008;51.504;11.548;2024-01-10T00:20:07;-9.58;93.35
64599;SHT31;51008;51.504;11.548;2024-01-10T00:25:08;-9.65;93.34
64599;SHT31;51008;51.504;11.548;2024-01-10T00:30:09;-9.69;93.33
64599;SHT31;51008;51.504;11.548;2024-01-10T00:35:10;-9.76;93.23
64599;SHT31;51008;51.504;11.548;2024-01-10T00:40:11;-9.77;93.50
64599;SHT31;51008;51.504;11.548;2024-01-10T00:45:12;-9.77;93.63
64599;SHT31;51008;51.504;11.548;2024-01-10T00:50:13;-9.75;93.65
64599;SHT31;51008;51.504;11.548;2024-01-10T00:55:17;-9.76;93.68
64599;SHT31;51008;51.504;11.548;2024-01-10T01:00:18;-9.83;93.65
64599;SHT31;51008;51.504;11.548;2024-01-10T01:05:19;-9.80;93.58
64599;SHT31;51008;51.504;11.548;2024-01-10T01:10:20;-9.86;93.46
64599;SHT31;51008;51.504;11.548;2024-01-10T01:15:21;-9.92;93.47
64599;SHT31;51008;51.504;11.548;2024-01-10T01:20:22;-9.92;93.60
64599;SHT31;51008;51.504;11.548;2024-01-10T01:25:23;-9.94;93.80
64599;SHT31;51008;51.504;11.548;2024-01-10T01:30:24;-9.99;93.72
64599;SHT31;51008;51.504;11.548;2024-01-10T01:35:25;-9.99;93.85
64599;SHT31;51008;51.504;11.548;2024-01-10T01:40:26;-10.04;93.96
64599;SHT31;51008;51.504;11.548;2024-01-10T01:45:27;-9.99;94.01
64599;SHT31;51008;51.504;11.548;2024-01-10T01:50:28;-9.99;94.02
64599;SHT31;51008;51.504;11.548;2024-01-10T01:55:29;-10.03;93.94
64599;SHT31;51008;51.504;11.548;2024-01-10T02:00:30;-10.06;93.83
64599;SHT31;51008;51.504;11.548;2024-01-10T02:05:32;-10.21;93.38
64599;SHT31;51008;51.504;11.548;2024-01-10T02:10:33;-10.34;93.23
64599;SHT31;51008;51.504;11.548;2024-01-10T02:15:35;-10.39;93.56
64599;SHT31;51008;51.504;11.548;2024-01-10T02:20:36;-10.41;94.11
64599;SHT31;51008;51.504;11.548;2024-01-10T02:25:38;-10.35;94.33
64599;SHT31;51008;51.504;11.548;2024-01-10T02:30:39;-10.27;94.61
64599;SHT31;51008;51.504;11.548;2024-01-10T02:35:40;-10.31;94.44
64599;SHT31;51008;51.504;11.548;2024-01-10T02:40:41;-10.30;94.36
64599;SHT31;51008;51.504;11.548;2024-01-10T02:45:42;-10.28;94.54
64599;SHT31;51008;51.504;11.548;2024-01-10T02:50:43;-10.31;94.36
64599;SHT31;51008;51.504;11.548;2024-01-10T02:55:44;-10.38;94.24
64599;SHT31;51008;51.504;11.548;2024-01-10T03:00:45;-10.41;94.39
64599;SHT31;51008;51.504;11.548;2024-01-10T03:05:46;-10.41;94.17
64599;SHT31;51008;51.504;11.548;2024-01-10T03:10:47;-10.42;94.21
64599;SHT31;51008;51.504;11.548;2024-01-10T03:15:48;-10.52;94.02
64599;SHT31;51008;51.504;11.548;2024-01-10T03:20:49;-10.59;93.80
64599;SHT31;51008;51.504;11.548;2024-01-10T03:25:50;-10.75;93.35
64599;SHT31;51008;51.504;11.548;2024-01-10T03:30:51;-10.84;93.55
64599;SHT31;51008;51.504;11.548;2024-01-10T03:35:52;-10.96;92.80
64599;SHT31;51008;51.504;11.548;2024-01-10T03:40:53;-11.00;93.23
64599;SHT31;51008;51.504;11.548;2024-01-10T03:45:54;-11.07;93.08
64599;SHT31;51008;51.504;11.548;2024-01-10T03:50:55;-11.10;93.33
64599;SHT31;51008;51.504;11.548;2024-01-10T03:55:56;-11.15;92.90
64599;SHT31;51008;51.504;11.548;2024-01-10T04:00:57;-11.21;93.19
64599;SHT31;51008;51.504;11.548;2024-01-10T04:05:58;-11.22;93.54
64599;SHT31;51008;51.504;11.548;2024-01-10T04:10:59;-11.29;93.34
64599;SHT31;51008;51.504;11.548;2024-01-10T04:16:00;-11.31;93.33
64599;SHT31;51008;51.504;11.548;2024-01-10T04:21:03;-11.36;93.18
64599;SHT31;51008;51.504;11.548;2024-01-10T04:26:05;-11.43;93.04
64599;SHT31;51008;51.504;11.548;2024-01-10T04:31:06;-11.42;93.33
64599;SHT31;51008;51.504;11.548;2024-01-10T04:36:07;-11.43;93.33
64599;SHT31;51008;51.504;11.548;2024-01-10T04:41:08;-11.50;93.03
64599;SHT31;51008;51.504;11.548;2024-01-10T04:46:09;-11.45;93.82
64599;SHT31;51008;51.504;11.548;2024-01-10T04:51:10;-11.49;93.40
64599;SHT31;51008;51.504;11.548;2024-01-10T04:56:11;-11.49;93.23
64599;SHT31;51008;51.504;11.548;2024-01-10T05:01:12;-11.52;93.28
64599;SHT31;51008;51.504;11.548;2024-01-10T05:06:13;-11.56;92.83
64599;SHT31;51008;51.504;11.548;2024-01-10T05:11:15;-11.67;92.24
64599;SHT31;51008;51.504;11.548;2024-01-10T05:16:16;-11.78;92.39
64599;SHT31;51008;51.504;11.548;2024-01-10T05:21:17;-11.83;92.74
64599;SHT31;51008;51.504;11.548;2024-01-10T05:26:18;-11.91;93.02
64599;SHT31;51008;51.504;11.548;2024-01-10T05:31:19;-11.85;93.06
64599;SHT31;51008;51.504;11.548;2024-01-10T05:36:23;-11.85;92.88
64599;SHT31;51008;51.504;11.548;2024-01-10T05:41:24;-11.92;92.99
64599;SHT31;51008;51.504;11.548;2024-01-10T05:46:25;-11.90;93.45
64599;SHT31;51008;51.504;11.548;2024-01-10T05:51:26;-11.88;93.42
64599;SHT31;51008;51.504;11.548;2024-01-10T05:56:27;-11.81;93.51
64599;SHT31;51008;51.504;11.548;2024-01-10T06:01:28;-11.83;93.55
64599;SHT31;51008;51.504;11.548;2024-01-10T06:06:29;-11.80;93.43
64599;SHT31;51008;51.504;11.548;2024-01-10T06:11:30;-11.81;93.48
64599;SHT31;51008;51.504;11.548;2024-01-10T06:16:31;-11.78;94.11
64599;SHT31;51008;51.504;11.548;2024-01-10T06:21:32;-11.81;93.94
64599;SHT31;51008;51.504;11.548;2024-01-10T06:26:33;-11.81;93.69
64599;SHT31;51008;51.504;11.548;2024-01-10T06:31:34;-11.84;93.62
64599;SHT31;51008;51.504;11.548;2024-01-10T06:36:35;-11.85;93.70
64599;SHT31;51008;51.504;11.548;2024-01-10T06:41:36;-11.90;93.39
64599;SHT31;51008;51.504;11.548;2024-01-10T06:46:37;-11.88;93.91
64599;SHT31;51008;51.504;11.548;2024-01-10T06:51:38;-11.99;92.96
64599;SHT31;51008;51.504;11.548;2024-01-10T06:56:39;-11.98;93.58
64599;SHT31;51008;51.504;11.548;2024-01-10T07:01:40;-12.03;93.45
64599;SHT31;51008;51.504;11.548;2024-01-10T07:06:41;-12.01;93.66
64599;SHT31;51008;51.504;11.548;2024-01-10T07:11:42;-12.02;93.25
64599;SHT31;51008;51.504;11.548;2024-01-10T07:16:43;-12.05;93.54
64599;SHT31;51008;51.504;11.548;2024-01-10T07:21:44;-12.02;93.44
64599;SHT31;51008;51.504;11.548;2024-01-10T07:26:45;-11.90;93.18
64599;SHT31;51008;51.504;11.548;2024-01-10T07:31:46;-11.71;93.29
64599;SHT31;51008;51.504;11.548;2024-01-10T07:36:47;-11.47;92.75
64599;SHT31;51008;51.504;11.548;2024-01-10T07:41:48;-11.11;92.86
64599;SHT31;51008;51.504;11.548;2024-01-10T07:46:48;-10.67;92.33
64599;SHT31;51008;51.504;11.548;2024-01-10T07:51:50;-10.24;91.68
64599;SHT31;51008;51.504;11.548;2024-01-10T07:56:51;-9.82;91.03
64599;SHT31;51008;51.504;11.548;2024-01-10T08:01:56;-9.35;90.50
64599;SHT31;51008;51.504;11.548;2024-01-10T08:06:57;-8.86;89.45
64599;SHT31;51008;51.504;11.548;2024-01-10T08:11:58;-8.48;88.59
64599;SHT31;51008;51.504;11.548;2024-01-10T08:16:59;-7.97;88.34
64599;SHT31;51008;51.504;11.548;2024-01-10T08:22:00;-7.36;88.31
64599;SHT31;51008;51.504;11.548;2024-01-10T08:27:01;-6.83;87.77
64599;SHT31;51008;51.504;11.548;2024-01-10T08:32:02;-6.45;86.36
64599;SHT31;51008;51.504;11.548;2024-01-10T08:37:03;-6.18;85.02
64599;SHT31;51008;51.504;11.548;2024-01-10T08:42:04;-5.84;84.20
64599;SHT31;51008;51.504;11.548;2024-01-10T08:47:05;-5.54;83.32
64599;SHT31;51008;51.504;11.548;2024-01-10T08:52:06;-5.36;81.70
64599;SHT31;51008;51.504;11.548;2024-01-10T08:57:07;-4.97;82.58
64599;SHT31;51008;51.504;11.548;2024-01-10T09:02:08;-4.61;82.29
64599;SHT31;51008;51.504;11.548;2024-01-10T09:07:09;-4.23;81.26
64599;SHT31;51008;51.504;11.548;2024-01-10T09:12:10;-4.23;78.58
64599;SHT31;51008;51.504;11.548;2024-01-10T09:17:11;-3.96;77.93
64599;SHT31;51008;51.504;11.548;2024-01-10T09:22:12;-3.75;77.34
64599;SHT31;51008;51.504;11.548;2024-01-10T09:27:13;-3.68;76.08
64599;SHT31;51008;51.504;11.548;2024-01-10T09:32:14;-3.74;76.91
64599;SHT31;51008;51.504;11.548;2024-01-10T09:37:15;-3.68;76.22
64599;SHT31;51008;51.504;11.548;2024-01-10T09:42:16;-3.71;76.38
64599;SHT31;51008;51.504;11.548;2024-01-10T09:47:19;-3.75;76.02
64599;SHT31;51008;51.504;11.548;2024-01-10T09:52:27;-3.62;76.82
64599;SHT31;51008;51.504;11.548;2024-01-10T09:57:28;-3.51;76.22
64599;SHT31;51008;51.504;11.548;2024-01-10T10:02:31;-3.62;75.49
64599;SHT31;51008;51.504;11.548;2024-01-10T10:07:49;-3.55;75.38
64599;SHT31;51008;51.504;11.548;2024-01-10T10:12:52;-3.40;74.95
64599;SHT31;51008;51.504;11.548;2024-01-10T10:17:54;-3.40;75.20
64599;SHT31;51008;51.504;11.548;2024-01-10T10:23:05;-3.29;74.99
64599;SHT31;51008;51.504;11.548;2024-01-10T10:28:06;-3.21;75.18
64599;SHT31;51008;51.504;11.548;2024-01-10T10:33:08;-3.19;74.52
64599;SHT31;51008;51.504;11.548;2024-01-10T10:38:09;-3.34;74.87
64599;SHT31;51008;51.504;11.548;2024-01-10T10:43:13;-3.26;75.49
64599;SHT31;51008;51.504;11.548;2024-01-10T10:48:24;-3.50;74.06
64599;SHT31;51008;51.504;11.548;2024-01-10T10:53:27;-3.41;75.32
64599;SHT31;51008;51.504;11.548;2024-01-10T10:58:34;-3.41;75.71
64599;SHT31;51008;51.504;11.548;2024-01-10T11:03:37;-3.46;76.01
64599;SHT31;51008;51.504;11.548;2024-01-10T11:08:43;-3.48;75.30
64599;SHT31;51008;51.504;11.548;2024-01-10T11:14:01;-3.52;74.50
64599;SHT31;51008;51.504;11.548;2024-01-10T11:19:26;-3.51;75.10
64599;SHT31;51008;51.504;11.548;2024-01-10T11:24:30;-3.55;74.56
64599;SHT31;51008;51.504;11.548;2024-01-10T11:29:37;-3.57;75.50
64599;SHT31;51008;51.504;11.548;2024-01-10T11:39:56;-3.68;75.55
64599;SHT31;51008;51.504;11.548;2024-01-10T11:44:57;-3.72;75.43
64599;SHT31;51008;51.504;11.548;2024-01-10T11:49:58;-3.81;76.57
64599;SHT31;51008;51.504;11.548;2024-01-10T11:55:00;-3.74;77.05
64599;SHT31;51008;51.504;11.548;2024-01-10T12:00:01;-3.74;77.11
64599;SHT31;51008;51.504;11.548;2024-01-10T12:05:02;-3.82;76.73
64599;SHT31;51008;51.504;11.548;2024-01-10T12:10:04;-3.85;77.04
64599;SHT31;51008;51.504;11.548;2024-01-10T12:15:05;-3.83;78.16
64599;SHT31;51008;51.504;11.548;2024-01-10T12:20:07;-3.83;77.71
64599;SHT31;51008;51.504;11.548;2024-01-10T12:25:08;-3.90;77.65
64599;SHT31;51008;51.504;11.548;2024-01-10T12:30:09;-3.90;77.65
64599;SHT31;51008;51.504;11.548;2024-01-10T12:35:10;-3.95;77.71
64599;SHT31;51008;51.504;11.548;2024-01-10T12:40:11;-4.06;78.56
64599;SHT31;51008;51.504;11.548;2024-01-10T12:45:24;-3.96;78.57
64599;SHT31;51008;51.504;11.548;2024-01-10T12:50:25;-3.90;79.03
64599;SHT31;51008;51.504;11.548;2024-01-10T12:55:27;-3.93;78.69
64599;SHT31;51008;51.504;11.548;2024-01-10T13:00:28;-4.00;78.65
64599;SHT31;51008;51.504;11.548;2024-01-10T13:05:28;-3.92;79.39
64599;SHT31;51008;51.504;11.548;2024-01-10T13:10:29;-3.96;79.51
64599;SHT31;51008;51.504;11.548;2024-01-10T13:15:31;-4.02;79.86
64599;SHT31;51008;51.504;11.548;2024-01-10T13:20:32;-4.11;79.96
64599;SHT31;51008;51.504;11.548;2024-01-10T13:25:34;-4.23;80.79
64599;SHT31;51008;51.504;11.548;2024-01-10T13:30:35;-4.31;81.09
64599;SHT31;51008;51.504;11.548;2024-01-10T13:35:37;-4.37;81.37
64599;SHT31;51008;51.504;11.548;2024-01-10T13:40:38;-4.44;81.70
64599;SHT31;51008;51.504;11.548;2024-01-10T13:45:39;-4.55;82.01
64599;SHT31;51008;51.504;11.548;2024-01-10T13:50:39;-4.61;82.41
64599;SHT31;51008;51.504;11.548;2024-01-10T13:55:40;-4.68;82.84
64599;SHT31;51008;51.504;11.548;2024-01-10T14:00:41;-4.75;83.25
64599;SHT31;51008;51.504;11.548;2024-01-10T14:05:42;-4.85;83.45
64599;SHT31;51008;51.504;11.548;2024-01-10T14:10:43;-4.99;83.81
64599;SHT31;51008;51.504;11.548;2024-01-10T14:15:44;-5.10;84.24
64599;SHT31;51008;51.504;11.548;2024-01-10T14:20:45;-5.15;84.31
64599;SHT31;51008;51.504;11.548;2024-01-10T14:25:46;-5.27;84.74
64599;SHT31;51008;51.504;11.548;2024-01-10T14:30:47;-5.39;84.99
64599;SHT31;51008;51.504;11.548;2024-01-10T14:35:48;-5.54;85.24
64599;SHT31;51008;51.504;11.548;2024-01-10T14:40:52;-5.59;85.64
64599;SHT31;51008;51.504;11.548;2024-01-10T14:45:53;-5.63;85.59
64599;SHT31;51008;51.504;11.548;2024-01-10T14:50:54;-5.70;85.76
64599;SHT31;51008;51.504;11.548;2024-01-10T14:55:55;-5.76;86.02
64599;SHT31;51008;51.504;11.548;2024-01-10T15:00:56;-5.91;85.98
64599;SHT31;51008;51.504;11.548;2024-01-10T15:05:57;-6.01;86.13
64599;SHT31;51008;51.504;11.548;2024-01-10T15:10:58;-6.11;86.57
64599;SHT31;51008;51.504;11.548;2024-01-10T15:15:59;-6.19;86.55
64599;SHT31;51008;51.504;11.548;2024-01-10T15:21:00;-6.29;86.52
64599;SHT31;51008;51.504;11.548;2024-01-10T15:26:01;-6.42;86.68
64599;SHT31;51008;51.504;11.548;2024-01-10T15:31:02;-6.53;86.73
64599;SHT31;51008;51.504;11.548;2024-01-10T15:36:04;-6.64;86.76
64599;SHT31;51008;51.504;11.548;2024-01-10T15:41:07;-6.79;87.05
64599;SHT31;51008;51.504;11.548;2024-01-10T15:46:08;-6.85;87.17
64599;SHT31;51008;51.504;11.548;2024-01-10T15:51:09;-6.94;87.24
64599;SHT31;51008;51.504;11.548;2024-01-10T15:56:11;-7.07;87.32
64599;SHT31;51008;51.504;11.548;2024-01-10T16:01:12;-7.18;87.42
64599;SHT31;51008;51.504;11.548;2024-01-10T16:06:13;-7.30;88.07
64599;SHT31;51008;51.504;11.548;2024-01-10T16:11:14;-7.43;88.05
64599;SHT31;51008;51.504;11.548;2024-01-10T16:16:15;-7.57;88.24
64599;SHT31;51008;51.504;11.548;2024-01-10T16:21:16;-7.66;88.46
64599;SHT31;51008;51.504;11.548;2024-01-10T16:26:17;-7.67;88.95
64599;SHT31;51008;51.504;11.548;2024-01-10T16:31:18;-7.73;89.03
64599;SHT31;51008;51.504;11.548;2024-01-10T16:36:19;-7.78;89.55
64599;SHT31;51008;51.504;11.548;2024-01-10T16:41:20;-7.88;89.53
64599;SHT31;51008;51.504;11.548;2024-01-10T16:46:21;-7.98;89.14
64599;SHT31;51008;51.504;11.548;2024-01-10T16:51:22;-8.06;89.99
64599;SHT31;51008;51.504;11.548;2024-01-10T16:56:23;-8.12;89.91
64599;SHT31;51008;51.504;11.548;2024-01-10T17:01:24;-8.15;89.89
64599;SHT31;51008;51.504;11.548;2024-01-10T17:06:25;-8.13;90.53
64599;SHT31;51008;51.504;11.548;2024-01-10T17:11:26;-8.16;90.60
64599;SHT31;51008;51.504;11.548;2024-01-10T17:16:27;-8.13;91.25
64599;SHT31;51008;51.504;11.548;2024-01-10T17:21:28;-8.12;91.07
64599;SHT31;51008;51.504;11.548;2024-01-10T17:26:29;-8.15;91.12
64599;SHT31;51008;51.504;11.548;2024-01-10T17:31:30;-8.15;91.46
64599;SHT31;51008;51.504;11.548;2024-01-10T17:36:35;-8.22;91.27
64599;SHT31;51008;51.504;11.548;2024-01-10T17:41:36;-8.19;91.78
64599;SHT31;51008;51.504;11.548;2024-01-10T17:46:37;-8.24;91.56
64599;SHT31;51008;51.504;11.548;2024-01-10T17:51:38;-8.23;91.95
64599;SHT31;51008;51.504;11.548;2024-01-10T17:56:39;-8.22;91.90
64599;SHT31;51008;51.504;11.548;2024-01-10T18:01:40;-8.27;91.70
64599;SHT31;51008;51.504;11.548;2024-01-10T18:06:41;-8.24;91.81
64599;SHT31;51008;51.504;11.548;2024-01-10T18:11:42;-8.32;91.06
64599;SHT31;51008;51.504;11.548;2024-01-10T18:16:43;-8.40;91.31
64599;SHT31;51008;51.504;11.548;2024-01-10T18:21:44;-8.40;91.48
64599;SHT31;51008;51.504;11.548;2024-01-10T18:26:45;-8.44;91.29
64599;SHT31;51008;51.504;11.548;2024-01-10T18:31:46;-8.38;92.16
64599;SHT31;51008;51.504;11.548;2024-01-10T18:36:47;-8.30;92.39
64599;SHT31;51008;51.504;11.548;2024-01-10T18:41:48;-8.32;91.81
64599;SHT31;51008;51.504;11.548;2024-01-10T18:46:49;-8.40;91.26
64599;SHT31;51008;51.504;11.548;2024-01-10T18:51:50;-8.47;91.34
64599;SHT31;51008;51.504;11.548;2024-01-10T18:56:51;-8.57;91.25
64599;SHT31;51008;51.504;11.548;2024-01-10T19:01:52;-8.69;91.17
64599;SHT31;51008;51.504;11.548;2024-01-10T19:06:53;-8.61;92.51
64599;SHT31;51008;51.504;11.548;2024-01-10T19:11:54;-8.62;91.78
64599;SHT31;51008;51.504;11.548;2024-01-10T19:16:57;-8.62;92.51
64599;SHT31;51008;51.504;11.548;2024-01-10T19:21:58;-8.64;92.24
64599;SHT31;51008;51.504;11.548;2024-01-10T19:26:59;-8.75;91.68
64599;SHT31;51008;51.504;11.548;2024-01-10T19:32:00;-8.82;91.66
64599;SHT31;51008;51.504;11.548;2024-01-10T19:37:01;-8.85;91.91
64599;SHT31;51008;51.504;11.548;2024-01-10T19:42:02;-8.86;92.48
64599;SHT31;51008;51.504;11.548;2024-01-10T19:47:03;-8.88;92.23
64599;SHT31;51008;51.504;11.548;2024-01-10T19:52:05;-8.89;92.10
64599;SHT31;51008;51.504;11.548;2024-01-10T19:57:06;-8.93;92.24
64599;SHT31;51008;51.504;11.548;2024-01-10T20:02:07;-8.97;91.96
64599;SHT31;51008;51.504;11.548;2024-01-10T20:07:08;-8.96;92.28
64599;SHT31;51008;51.504;11.548;2024-01-10T20:12:09;-8.95;92.35
64599;SHT31;51008;51.504;11.548;2024-01-10T20:17:11;-8.96;92.22
64599;SHT31;51008;51.504;11.548;2024-01-10T20:22:12;-9.07;91.80
64599;SHT31;51008;51.504;11.548;2024-01-10T20:27:13;-9.07;92.53
64599;SHT31;51008;51.504;11.548;2024-01-10T20:32:15;-8.97;93.24
64599;SHT31;51008;51.504;11.548;2024-01-10T20:37:16;-8.89;93.38
64599;SHT31;51008;51.504;11.548;2024-01-10T20:42:18;-8.89;93.10
64599;SHT31;51008;51.504;11.548;2024-01-10T20:47:19;-8.93;92.46
64599;SHT31;51008;51.504;11.548;2024-01-10T20:52:22;-9.06;92.31
64599;SHT31;51008;51.504;11.548;2024-01-10T20:57:23;-9.07;92.48
64599;SHT31;51008;51.504;11.548;2024-01-10T21:02:26;-8.99;92.93
64599;SHT31;51008;51.504;11.548;2024-01-10T21:07:27;-8.91;93.10
64599;SHT31;51008;51.504;11.548;2024-01-10T21:12:28;-8.82;93.06
64599;SHT31;51008;51.504;11.548;2024-01-10T21:17:29;-8.91;92.61
64599;SHT31;51008;51.504;11.548;2024-01-10T21:22:31;-8.97;92.68
64599;SHT31;51008;51.504;11.548;2024-01-10T21:27:31;-8.96;92.77
64599;SHT31;51008;51.504;11.548;2024-01-10T21:32:33;-9.00;92.44
64599;SHT31;51008;51.504;11.548;2024-01-10T21:37:33;-9.09;92.27
64599;SHT31;51008;51.504;11.548;2024-01-10T21:42:34;-8.99;92.70
64599;SHT31;51008;51.504;11.548;2024-01-10T21:47:35;-8.96;92.71
64599;SHT31;51008;51.504;11.548;2024-01-10T21:52:37;-8.97;92.75
64599;SHT31;51008;51.504;11.548;2024-01-10T21:57:37;-9.02;92.55
64599;SHT31;51008;51.504;11.548;2024-01-10T22:02:39;-9.16;91.83
64599;SHT31;51008;51.504;11.548;2024-01-10T22:07:40;-9.26;91.89
64599;SHT31;51008;51.504;11.548;2024-01-10T22:12:40;-9.34;91.85
64599;SHT31;51008;51.504;11.548;2024-01-10T22:17:42;-9.37;92.12
64599;SHT31;51008;51.504;11.548;2024-01-10T22:22:43;-9.27;93.22
64599;SHT31;51008;51.504;11.548;2024-01-10T22:27:44;-9.19;93.87
64599;SHT31;51008;51.504;11.548;2024-01-10T22:32:45;-9.22;92.89
64599;SHT31;51008;51.504;11.548;2024-01-10T22:37:46;-9.07;93.65
64599;SHT31;51008;51.504;11.548;2024-01-10T22:42:47;-9.12;93.25
64599;SHT31;51008;51.504;11.548;2024-01-10T22:47:48;-9.23;92.60
64599;SHT31;51008;51.504;11.548;2024-01-10T22:52:49;-9.38;92.29
64599;SHT31;51008;51.504;11.548;2024-01-10T22:57:50;-9.37;92.68
64599;SHT31;51008;51.504;11.548;2024-01-10T23:02:51;-9.41;92.75
64599;SHT31;51008;51.504;11.548;2024-01-10T23:07:52;-9.44;92.60
64599;SHT31;51008;51.504;11.548;2024-01-10T23:12:53;-9.45;92.75
64599;SHT31;51008;51.504;11.548;2024-01-10T23:17:54;-9.35;93.24
64599;SHT31;51008;51.504;11.548;2024-01-10T23:22:55;-9.45;92.61
64599;SHT31;51008;51.504;11.548;2024-01-10T23:27:56;-9.37;93.32
64599;SHT31;51008;51.504;11.548;2024-01-10T23:32:57;-9.34;93.26
64599;SHT31;51008;51.504;11.548;2024-01-10T23:37:58;-9.42;92.40
64599;SHT31;51008;51.504;11.548;2024-01-10T23:42:59;-9.28;93.99
64599;SHT31;51008;51.504;11.548;2024-01-10T23:48:00;-9.33;92.90
64599;SHT31;51008;51.504;11.548;2024-01-10T23:53:01;-9.35;93.30
64599;SHT31;51008;51.504;11.548;2024-01-10T23:58:02;-9.19;93.86
